Time,TemperatureF,DewpointF,PressureIn,WindDirection,WindDirectionDegrees,WindSpeedMPH,WindSpeedGustMPH,Humidity,HourlyPrecipIn,Conditions,Clouds,dailyrainin,SoftwareType,DateUTC
2013-04-11 00:01:00,50.2,48.7,-100.00,East,86,0.0,0.0,95,0.00,,,0.32,meteohub,2013-04-11 05:01:00,
2013-04-11 00:06:00,50.2,48.7,-100.00,East,86,0.0,0.0,95,0.00,,,0.32,meteohub,2013-04-11 05:06:00,
2013-04-11 00:11:00,50.2,48.7,-100.00,East,86,0.0,0.0,95,0.00,,,0.32,meteohub,2013-04-11 05:11:00,
2013-04-11 00:16:00,50.2,48.7,-100.00,East,86,0.0,0.0,95,0.00,,,0.32,meteohub,2013-04-11 05:16:00,
2013-04-11 00:21:00,50.2,48.7,-100.00,East,86,0.0,0.0,95,0.00,,,0.32,meteohub,2013-04-11 05:21:00,
2013-04-11 00:26:00,50.2,48.7,-100.00,East,86,0.0,0.0,95,0.00,,,0.32,meteohub,2013-04-11 05:26:00,
2013-04-11 00:31:00,50.2,48.7,-100.00,East,86,0.0,0.0,95,0.00,,,0.32,meteohub,2013-04-11 05:31:00,
2013-04-11 00:36:00,50.4,48.9,-100.00,East,86,0.0,1.0,95,0.00,,,0.32,meteohub,2013-04-11 05:36:00,
2013-04-11 00:41:00,50.4,48.9,-100.00,East,86,0.0,2.0,95,0.00,,,0.32,meteohub,2013-04-11 05:41:00,
2013-04-11 00:46:00,50.4,48.9,-100.00,East,90,0.0,3.0,95,0.01,,,0.33,meteohub,2013-04-11 05:46:00,
2013-04-11 00:51:00,50.2,48.7,-100.00,East,90,0.0,3.0,95,0.02,,,0.34,meteohub,2013-04-11 05:51:00,
2013-04-11 00:56:00,50.2,48.7,-100.00,East,90,0.0,3.0,95,0.02,,,0.34,meteohub,2013-04-11 05:56:00,
2013-04-11 01:01:00,50.2,48.7,-100.00,East,90,0.0,2.0,95,0.02,,,0.34,meteohub,2013-04-11 06:01:00,
2013-04-11 01:06:00,50.4,48.9,-100.00,East,90,0.0,2.0,95,0.02,,,0.34,meteohub,2013-04-11 06:06:00,
2013-04-11 01:11:00,50.4,48.9,-100.00,East,90,0.0,1.0,95,0.02,,,0.34,meteohub,2013-04-11 06:11:00,
2013-04-11 01:16:00,50.4,48.9,-100.00,East,90,0.0,3.0,95,0.02,,,0.34,meteohub,2013-04-11 06:16:00,
2013-04-11 01:21:00,50.4,48.9,-100.00,SW,222,1.0,5.0,95,0.02,,,0.34,meteohub,2013-04-11 06:21:00,
2013-04-11 01:26:00,49.8,48.4,-100.00,SW,221,6.0,11.0,95,0.02,,,0.34,meteohub,2013-04-11 06:26:00,
2013-04-11 01:32:00,49.3,47.8,-100.00,West,259,4.0,11.0,95,0.02,,,0.34,meteohub,2013-04-11 06:32:00,
2013-04-11 01:36:00,48.9,47.5,-100.00,West,264,3.0,11.0,95,0.02,,,0.34,meteohub,2013-04-11 06:36:00,
2013-04-11 01:41:00,48.6,47.1,-100.00,WSW,250,1.0,12.0,95,0.01,,,0.34,meteohub,2013-04-11 06:41:00,
2013-04-11 01:46:00,48.4,46.9,-100.00,West,265,4.0,12.0,95,0.01,,,0.34,meteohub,2013-04-11 06:46:00,
2013-04-11 01:52:00,48.2,46.8,-100.00,West,264,3.0,11.0,95,0.00,,,0.34,meteohub,2013-04-11 06:52:00,
2013-04-11 01:57:00,48.0,46.6,-100.00,WSW,254,0.0,11.0,95,0.01,,,0.35,meteohub,2013-04-11 06:57:00,
2013-04-11 02:02:00,48.0,46.6,-100.00,West,259,0.0,10.0,95,0.01,,,0.35,meteohub,2013-04-11 07:02:00,
2013-04-11 02:07:00,48.0,46.6,-100.00,WSW,258,0.0,10.0,95,0.01,,,0.35,meteohub,2013-04-11 07:07:00,
2013-04-11 02:12:00,47.8,46.4,-100.00,West,266,0.0,10.0,95,0.01,,,0.35,meteohub,2013-04-11 07:12:00,
2013-04-11 02:17:00,47.7,46.2,-100.00,WSW,253,7.0,10.0,95,0.01,,,0.35,meteohub,2013-04-11 07:17:00,
2013-04-11 02:22:00,47.5,46.0,-100.00,West,267,1.0,11.0,95,0.01,,,0.35,meteohub,2013-04-11 07:22:00,
2013-04-11 02:27:00,47.5,46.0,-100.00,West,274,3.0,11.0,95,0.01,,,0.35,meteohub,2013-04-11 07:27:00,
2013-04-11 02:32:00,47.3,45.9,-100.00,West,267,0.0,11.0,95,0.01,,,0.35,meteohub,2013-04-11 07:32:00,
2013-04-11 02:37:00,47.1,45.7,-100.00,West,265,0.0,7.0,95,0.02,,,0.36,meteohub,2013-04-11 07:37:00,
2013-04-11 02:42:00,46.9,45.5,-100.00,SW,233,0.0,5.0,95,0.02,,,0.36,meteohub,2013-04-11 07:42:00,
2013-04-11 02:47:00,46.9,45.5,-100.00,SW,224,0.0,6.0,95,0.02,,,0.36,meteohub,2013-04-11 07:47:00,
2013-04-11 02:52:00,46.9,45.5,-100.00,SW,226,8.0,11.0,95,0.02,,,0.36,meteohub,2013-04-11 07:52:00,
2013-04-11 02:57:00,46.8,45.3,-100.00,WNW,296,4.0,11.0,95,0.01,,,0.36,meteohub,2013-04-11 07:57:00,
2013-04-11 03:02:00,46.8,45.3,-100.00,WSW,238,0.0,12.0,95,0.01,,,0.36,meteohub,2013-04-11 08:02:00,
2013-04-11 03:07:00,46.6,45.1,-100.00,WSW,241,2.0,12.0,95,0.01,,,0.36,meteohub,2013-04-11 08:07:00,
2013-04-11 03:12:00,46.6,45.1,-100.00,WSW,254,0.0,11.0,95,0.01,,,0.36,meteohub,2013-04-11 08:12:00,
2013-04-11 03:17:00,46.2,44.8,-100.00,SSW,205,3.0,10.0,95,0.01,,,0.36,meteohub,2013-04-11 08:17:00,
2013-04-11 03:22:00,46.0,44.6,-100.00,SW,219,1.0,16.0,95,0.01,,,0.36,meteohub,2013-04-11 08:22:00,
2013-04-11 03:27:00,46.0,44.6,-100.00,SW,230,3.0,16.0,95,0.01,,,0.36,meteohub,2013-04-11 08:27:00,
2013-04-11 03:32:00,46.0,44.6,-100.00,SW,234,0.0,16.0,95,0.00,,,0.36,meteohub,2013-04-11 08:32:00,
2013-04-11 03:37:00,46.0,44.6,-100.00,SW,228,3.0,8.0,95,0.00,,,0.36,meteohub,2013-04-11 08:37:00,
2013-04-11 03:42:00,46.0,44.6,-100.00,WSW,252,6.0,9.0,95,0.00,,,0.36,meteohub,2013-04-11 08:42:00,
2013-04-11 03:47:00,46.0,44.6,-100.00,SW,229,9.0,12.0,95,0.00,,,0.36,meteohub,2013-04-11 08:47:00,
2013-04-11 03:52:00,45.9,44.4,-100.00,WSW,257,3.0,15.0,95,0.00,,,0.36,meteohub,2013-04-11 08:52:00,
2013-04-11 03:57:00,45.9,44.4,-100.00,SW,219,5.0,15.0,95,0.00,,,0.36,meteohub,2013-04-11 08:57:00,
2013-04-11 04:02:00,45.9,44.4,-100.00,SW,236,0.0,15.0,95,0.00,,,0.36,meteohub,2013-04-11 09:02:00,
2013-04-11 04:07:00,45.9,44.4,-100.00,WNW,284,7.0,11.0,95,0.00,,,0.36,meteohub,2013-04-11 09:07:00,
2013-04-11 04:12:00,45.7,44.4,-100.00,SW,224,9.0,15.0,95,0.00,,,0.36,meteohub,2013-04-11 09:12:00,
2013-04-11 04:17:00,45.7,44.4,-100.00,SW,223,4.0,15.0,95,0.00,,,0.36,meteohub,2013-04-11 09:17:00,
2013-04-11 04:22:00,45.7,44.4,-100.00,WSW,243,2.0,15.0,95,0.00,,,0.36,meteohub,2013-04-11 09:22:00,
2013-04-11 04:27:00,45.5,44.2,-100.00,SW,225,0.0,12.0,95,0.00,,,0.36,meteohub,2013-04-11 09:27:00,
2013-04-11 04:32:00,45.5,44.2,-100.00,SW,219,6.0,12.0,95,0.00,,,0.36,meteohub,2013-04-11 09:32:00,
2013-04-11 04:37:00,45.5,44.2,-100.00,SW,215,0.0,12.0,95,0.00,,,0.36,meteohub,2013-04-11 09:37:00,
2013-04-11 04:42:00,45.5,44.2,-100.00,SW,215,0.0,10.0,95,0.00,,,0.36,meteohub,2013-04-11 09:42:00,
2013-04-11 04:47:00,45.5,44.2,-100.00,SW,229,4.0,10.0,95,0.00,,,0.36,meteohub,2013-04-11 09:47:00,
2013-04-11 04:52:00,45.3,44.1,-100.00,West,278,3.0,8.0,95,0.00,,,0.36,meteohub,2013-04-11 09:52:00,
2013-04-11 04:57:00,45.3,44.1,-100.00,WSW,243,0.0,12.0,95,0.00,,,0.36,meteohub,2013-04-11 09:57:00,
2013-04-11 05:02:00,45.5,44.2,-100.00,SW,234,0.0,12.0,95,0.00,,,0.36,meteohub,2013-04-11 10:02:00,
2013-04-11 05:07:00,45.5,44.2,-100.00,West,262,0.0,12.0,95,0.00,,,0.36,meteohub,2013-04-11 10:07:00,
2013-04-11 05:12:00,45.5,44.2,-100.00,West,261,8.0,8.0,95,0.00,,,0.36,meteohub,2013-04-11 10:12:00,
2013-04-11 05:17:00,45.3,44.1,-100.00,SW,226,3.0,9.0,95,0.00,,,0.36,meteohub,2013-04-11 10:17:00,
2013-04-11 05:22:00,45.3,44.1,-100.00,SW,227,4.0,9.0,95,0.00,,,0.36,meteohub,2013-04-11 10:22:00,
2013-04-11 05:27:00,45.1,43.9,-100.00,SW,235,13.0,13.0,95,0.00,,,0.36,meteohub,2013-04-11 10:27:00,
2013-04-11 05:32:00,45.1,43.9,-100.00,WSW,250,6.0,16.0,95,0.00,,,0.36,meteohub,2013-04-11 10:32:00,
2013-04-11 05:37:00,45.1,43.9,-100.00,SW,231,9.0,16.0,95,0.00,,,0.36,meteohub,2013-04-11 10:37:00,
2013-04-11 05:42:00,45.0,43.7,-100.00,West,259,6.0,16.0,95,0.00,,,0.36,meteohub,2013-04-11 10:42:00,
2013-04-11 05:47:00,45.0,43.7,-100.00,West,271,5.0,16.0,95,0.00,,,0.36,meteohub,2013-04-11 10:47:00,
2013-04-11 05:52:00,45.0,43.7,-100.00,SW,229,2.0,16.0,95,0.00,,,0.36,meteohub,2013-04-11 10:52:00,
2013-04-11 05:57:00,45.0,43.7,-100.00,WSW,248,2.0,12.0,95,0.00,,,0.36,meteohub,2013-04-11 10:57:00,
2013-04-11 06:02:00,45.0,43.7,-100.00,SW,229,12.0,12.0,95,0.00,,,0.36,meteohub,2013-04-11 11:02:00,
2013-04-11 06:07:00,45.0,43.7,-100.00,SSW,209,2.0,12.0,95,0.00,,,0.36,meteohub,2013-04-11 11:07:00,
2013-04-11 06:12:00,45.0,43.7,-100.00,SW,218,6.0,13.0,95,0.00,,,0.36,meteohub,2013-04-11 11:12:00,
2013-04-11 06:17:00,45.0,43.7,-100.00,WSW,249,7.0,15.0,95,0.00,,,0.36,meteohub,2013-04-11 11:17:00,
2013-04-11 06:22:00,45.0,43.7,-100.00,WNW,282,3.0,15.0,95,0.00,,,0.36,meteohub,2013-04-11 11:22:00,
2013-04-11 06:27:00,45.0,43.7,-100.00,West,267,5.0,15.0,95,0.00,,,0.36,meteohub,2013-04-11 11:27:00,
2013-04-11 06:32:00,45.0,43.3,-100.00,West,269,12.0,15.0,94,0.00,,,0.36,meteohub,2013-04-11 11:32:00,
2013-04-11 06:37:00,44.8,43.2,-100.00,WSW,258,3.0,15.0,94,0.00,,,0.36,meteohub,2013-04-11 11:37:00,
2013-04-11 06:42:00,44.8,43.2,-100.00,West,268,5.0,15.0,94,0.00,,,0.36,meteohub,2013-04-11 11:42:00,
2013-04-11 06:47:00,44.8,43.2,-100.00,West,276,6.0,15.0,94,0.00,,,0.36,meteohub,2013-04-11 11:47:00,
2013-04-11 06:52:00,44.6,43.0,-100.00,WSW,254,5.0,12.0,94,0.00,,,0.36,meteohub,2013-04-11 11:52:00,
2013-04-11 06:57:00,44.4,42.8,-100.00,WSW,248,0.0,9.0,94,0.00,,,0.36,meteohub,2013-04-11 11:57:00,
2013-04-11 07:02:00,44.4,42.8,-100.00,WSW,240,0.0,10.0,94,0.00,,,0.36,meteohub,2013-04-11 12:02:00,
2013-04-11 07:07:00,44.2,42.6,-100.00,West,279,6.0,10.0,94,0.00,,,0.36,meteohub,2013-04-11 12:07:00,
2013-04-11 07:12:00,44.2,42.6,-100.00,SW,225,5.0,14.0,94,0.00,,,0.36,meteohub,2013-04-11 12:12:00,
2013-04-11 07:17:00,44.2,42.6,-100.00,WSW,241,1.0,14.0,94,0.00,,,0.36,meteohub,2013-04-11 12:17:00,
2013-04-11 07:22:00,44.4,42.8,-100.00,West,261,2.0,16.0,94,0.00,,,0.36,meteohub,2013-04-11 12:22:00,
2013-04-11 07:27:00,44.8,43.2,-100.00,WSW,241,0.0,16.0,94,0.00,,,0.36,meteohub,2013-04-11 12:27:00,
2013-04-11 07:32:00,45.0,43.0,-100.00,WSW,256,4.0,9.0,93,0.00,,,0.36,meteohub,2013-04-11 12:32:00,
2013-04-11 07:37:00,45.0,43.0,-100.00,WNW,288,4.0,9.0,93,0.00,,,0.36,meteohub,2013-04-11 12:37:00,
2013-04-11 07:42:00,45.1,43.2,-100.00,West,269,2.0,7.0,93,0.00,,,0.36,meteohub,2013-04-11 12:42:00,
2013-04-11 07:47:00,45.1,43.2,-100.00,SW,221,2.0,12.0,93,0.00,,,0.36,meteohub,2013-04-11 12:47:00,
2013-04-11 07:52:00,45.1,43.2,-100.00,WSW,254,3.0,13.0,93,0.00,,,0.36,meteohub,2013-04-11 12:52:00,
2013-04-11 07:57:00,45.0,43.0,-100.00,WSW,257,3.0,13.0,93,0.00,,,0.36,meteohub,2013-04-11 12:57:00,
2013-04-11 08:02:00,45.0,43.0,-100.00,WSW,248,9.0,12.0,93,0.00,,,0.36,meteohub,2013-04-11 13:02:00,
2013-04-11 08:07:00,44.8,42.8,-100.00,SW,231,4.0,14.0,93,0.00,,,0.36,meteohub,2013-04-11 13:07:00,
2013-04-11 08:12:00,44.8,42.8,-100.00,SW,235,4.0,15.0,93,0.00,,,0.36,meteohub,2013-04-11 13:12:00,
2013-04-11 08:17:00,44.6,42.6,-100.00,SW,222,2.0,15.0,93,0.00,,,0.36,meteohub,2013-04-11 13:17:00,
2013-04-11 08:22:00,44.4,42.4,-100.00,WSW,256,5.0,15.0,93,0.00,,,0.36,meteohub,2013-04-11 13:22:00,
2013-04-11 08:27:00,44.4,42.4,-100.00,SSW,213,15.0,15.0,93,0.00,,,0.36,meteohub,2013-04-11 13:27:00,
2013-04-11 08:32:00,44.1,42.1,-100.00,SSW,208,4.0,18.0,93,0.00,,,0.36,meteohub,2013-04-11 13:32:00,
2013-04-11 08:37:00,44.1,41.9,-100.00,SW,235,10.0,18.0,92,0.00,,,0.36,meteohub,2013-04-11 13:37:00,
2013-04-11 08:42:00,43.9,41.7,-100.00,WSW,243,6.0,18.0,92,0.00,,,0.36,meteohub,2013-04-11 13:42:00,
2013-04-11 08:47:00,43.9,41.7,-100.00,SW,234,1.0,13.0,92,0.00,,,0.36,meteohub,2013-04-11 13:47:00,
2013-04-11 08:52:00,43.9,41.7,-100.00,West,263,6.0,16.0,92,0.00,,,0.36,meteohub,2013-04-11 13:52:00,
2013-04-11 08:57:00,43.9,41.7,-100.00,WSW,252,7.0,16.0,92,0.00,,,0.36,meteohub,2013-04-11 13:57:00,
2013-04-11 09:02:00,43.9,41.4,-100.00,SW,214,7.0,18.0,91,0.00,,,0.36,meteohub,2013-04-11 14:02:00,
2013-04-11 09:07:00,44.1,41.5,-100.00,SW,236,6.0,18.0,91,0.00,,,0.36,meteohub,2013-04-11 14:07:00,
2013-04-11 09:12:00,44.1,41.5,-100.00,SW,226,9.0,18.0,91,0.00,,,0.36,meteohub,2013-04-11 14:12:00,
2013-04-11 09:17:00,44.2,41.5,-100.00,WSW,258,2.0,17.0,90,0.00,,,0.36,meteohub,2013-04-11 14:17:00,
2013-04-11 09:22:00,44.2,41.7,-100.00,WSW,254,6.0,16.0,91,0.00,,,0.36,meteohub,2013-04-11 14:22:00,
2013-04-11 09:27:00,43.9,41.2,-100.00,WSW,240,11.0,16.0,90,0.00,,,0.36,meteohub,2013-04-11 14:27:00,
2013-04-11 09:32:00,43.9,41.4,-100.00,SW,216,11.0,16.0,91,0.00,,,0.36,meteohub,2013-04-11 14:32:00,
2013-04-11 09:37:00,43.7,41.0,-100.00,SW,225,10.0,16.0,90,0.00,,,0.36,meteohub,2013-04-11 14:37:00,
2013-04-11 09:42:00,44.1,41.4,-100.00,SSW,206,11.0,16.0,90,0.00,,,0.36,meteohub,2013-04-11 14:42:00,
2013-04-11 09:47:00,44.1,41.4,-100.00,WSW,240,13.0,16.0,90,0.00,,,0.36,meteohub,2013-04-11 14:47:00,
2013-04-11 09:52:00,43.9,40.8,-100.00,SW,232,7.0,17.0,89,0.00,,,0.36,meteohub,2013-04-11 14:52:00,
2013-04-11 09:57:00,44.1,41.4,-100.00,WSW,242,16.0,17.0,90,0.00,,,0.36,meteohub,2013-04-11 14:57:00,
2013-04-11 10:02:00,44.2,41.0,-100.00,West,260,7.0,17.0,88,0.00,,,0.36,meteohub,2013-04-11 15:02:00,
2013-04-11 10:07:00,44.8,41.4,-100.00,SW,229,6.0,17.0,88,0.00,,,0.36,meteohub,2013-04-11 15:07:00,
2013-04-11 10:12:00,44.8,40.8,-100.00,WSW,237,11.0,17.0,86,0.00,,,0.36,meteohub,2013-04-11 15:12:00,
2013-04-11 10:17:00,44.8,40.5,-100.00,SW,231,14.0,17.0,85,0.00,,,0.36,meteohub,2013-04-11 15:17:00,
2013-04-11 10:22:00,44.2,40.3,-100.00,SW,236,18.0,18.0,86,0.00,,,0.36,meteohub,2013-04-11 15:22:00,
2013-04-11 10:27:00,44.2,40.3,-100.00,SW,230,14.0,23.0,86,0.00,,,0.36,meteohub,2013-04-11 15:27:00,
2013-04-11 10:32:00,44.4,40.3,-100.00,SW,229,6.0,24.0,85,0.00,,,0.36,meteohub,2013-04-11 15:32:00,
2013-04-11 10:37:00,45.0,40.5,-100.00,WSW,240,20.0,24.0,84,0.00,,,0.36,meteohub,2013-04-11 15:37:00,
2013-04-11 10:42:00,45.1,40.3,-100.00,SW,229,4.0,21.0,83,0.00,,,0.36,meteohub,2013-04-11 15:42:00,
2013-04-11 10:47:00,45.1,39.9,-100.00,SW,236,14.0,21.0,82,0.00,,,0.36,meteohub,2013-04-11 15:47:00,
2013-04-11 10:53:00,44.8,39.9,-100.00,SW,235,12.0,21.0,83,0.00,,,0.36,meteohub,2013-04-11 15:53:00,
2013-04-11 10:58:00,44.2,39.7,-100.00,West,261,9.0,18.0,84,0.00,,,0.36,meteohub,2013-04-11 15:58:00,
2013-04-11 11:03:00,44.1,39.2,-100.00,SW,225,12.0,22.0,83,0.00,,,0.36,meteohub,2013-04-11 16:03:00,
2013-04-11 11:08:00,44.2,39.0,-100.00,SW,223,11.0,22.0,82,0.00,,,0.36,meteohub,2013-04-11 16:08:00,
2013-04-11 11:13:00,44.8,39.6,-100.00,WSW,246,10.0,23.0,82,0.00,,,0.36,meteohub,2013-04-11 16:13:00,
2013-04-11 11:18:00,45.1,39.7,-100.00,SSW,213,16.0,23.0,81,0.00,,,0.36,meteohub,2013-04-11 16:18:00,
2013-04-11 11:23:00,44.8,39.0,-100.00,WSW,248,12.0,23.0,80,0.00,,,0.36,meteohub,2013-04-11 16:23:00,
2013-04-11 11:28:00,44.4,38.7,-100.00,WSW,248,14.0,23.0,80,0.00,,,0.36,meteohub,2013-04-11 16:28:00,
2013-04-11 11:33:00,44.1,38.3,-100.00,SSW,204,13.0,25.0,80,0.00,,,0.36,meteohub,2013-04-11 16:33:00,
2013-04-11 11:38:00,43.5,38.1,-100.00,SW,222,5.0,25.0,81,0.00,,,0.36,meteohub,2013-04-11 16:38:00,
2013-04-11 11:43:00,43.7,38.3,-100.00,WSW,244,23.0,25.0,81,0.00,,,0.36,meteohub,2013-04-11 16:43:00,
2013-04-11 11:48:00,43.5,38.1,-100.00,SW,227,15.0,23.0,81,0.00,,,0.36,meteohub,2013-04-11 16:48:00,
2013-04-11 11:53:00,43.3,37.9,-100.00,SW,215,11.0,23.0,81,0.00,,,0.36,meteohub,2013-04-11 16:53:00,
2013-04-11 11:58:00,43.2,38.1,-100.00,SW,230,7.0,23.0,82,0.00,,,0.36,meteohub,2013-04-11 16:58:00,
2013-04-11 12:03:00,43.5,38.5,-100.00,WSW,237,6.0,21.0,82,0.00,,,0.36,meteohub,2013-04-11 17:03:00,
2013-04-11 12:08:00,44.4,39.0,-100.00,WSW,254,2.0,21.0,81,0.00,,,0.36,meteohub,2013-04-11 17:08:00,
2013-04-11 12:13:00,45.0,39.2,-100.00,WSW,242,10.0,20.0,80,0.00,,,0.36,meteohub,2013-04-11 17:13:00,
2013-04-11 12:18:00,44.2,37.2,-100.00,SW,219,14.0,18.0,76,0.00,,,0.36,meteohub,2013-04-11 17:18:00,
2013-04-11 12:23:00,43.9,37.2,-100.00,WSW,241,9.0,18.0,77,0.00,,,0.36,meteohub,2013-04-11 17:23:00,
2013-04-11 12:28:00,44.4,37.0,-100.00,SW,225,9.0,18.0,75,0.00,,,0.36,meteohub,2013-04-11 17:28:00,
2013-04-11 12:33:00,45.0,36.9,-100.00,SW,217,16.0,18.0,73,0.00,,,0.36,meteohub,2013-04-11 17:33:00,
2013-04-11 12:38:00,45.0,37.2,-100.00,WSW,251,5.0,20.0,74,0.00,,,0.36,meteohub,2013-04-11 17:38:00,
2013-04-11 12:43:00,44.8,37.4,-100.00,WSW,250,19.0,21.0,75,0.00,,,0.36,meteohub,2013-04-11 17:43:00,
2013-04-11 12:48:00,44.4,37.4,-100.00,SW,222,11.0,21.0,76,0.00,,,0.36,meteohub,2013-04-11 17:48:00,
2013-04-11 12:53:00,44.2,37.2,-100.00,SW,231,11.0,19.0,76,0.00,,,0.36,meteohub,2013-04-11 17:53:00,
2013-04-11 12:58:00,44.2,36.9,-100.00,SW,228,7.0,19.0,75,0.00,,,0.36,meteohub,2013-04-11 17:58:00,
2013-04-11 13:03:00,43.9,36.5,-100.00,SW,234,10.0,19.0,75,0.00,,,0.36,meteohub,2013-04-11 18:03:00,
2013-04-11 13:08:00,43.7,36.0,-100.00,WSW,249,4.0,21.0,74,0.00,,,0.36,meteohub,2013-04-11 18:08:00,
2013-04-11 13:13:00,44.1,36.3,-100.00,SW,226,18.0,26.0,74,0.00,,,0.36,meteohub,2013-04-11 18:13:00,
2013-04-11 13:18:00,45.0,36.9,-100.00,WSW,245,9.0,26.0,73,0.00,,,0.36,meteohub,2013-04-11 18:18:00,
2013-04-11 13:23:00,45.7,37.6,-100.00,WSW,253,3.0,26.0,73,0.00,,,0.36,meteohub,2013-04-11 18:23:00,
2013-04-11 13:28:00,45.9,37.4,-100.00,SW,236,9.0,24.0,72,0.00,,,0.36,meteohub,2013-04-11 18:28:00,
2013-04-11 13:33:00,45.1,37.8,-100.00,WSW,242,10.0,23.0,75,0.00,,,0.36,meteohub,2013-04-11 18:33:00,
2013-04-11 13:38:00,45.0,38.1,-100.00,SW,232,16.0,21.0,77,0.00,,,0.36,meteohub,2013-04-11 18:38:00,
2013-04-11 13:43:00,44.4,37.0,-100.00,WSW,251,7.0,22.0,75,0.00,,,0.36,meteohub,2013-04-11 18:43:00,
2013-04-11 13:48:00,44.1,37.6,-100.00,SW,224,16.0,24.0,78,0.00,,,0.36,meteohub,2013-04-11 18:48:00,
2013-04-11 13:53:00,43.3,36.7,-100.00,WSW,244,12.0,24.0,77,0.00,,,0.36,meteohub,2013-04-11 18:53:00,
2013-04-11 13:58:00,43.2,35.8,-100.00,SW,227,5.0,24.0,75,0.00,,,0.36,meteohub,2013-04-11 18:58:00,
2013-04-11 14:03:00,42.8,35.1,-100.00,WSW,250,22.0,23.0,74,0.00,,,0.36,meteohub,2013-04-11 19:03:00,
2013-04-11 14:08:00,42.4,35.1,-100.00,SW,230,7.0,23.0,75,0.00,,,0.36,meteohub,2013-04-11 19:08:00,
2013-04-11 14:13:00,42.3,35.2,-100.00,WSW,244,9.0,25.0,76,0.00,,,0.36,meteohub,2013-04-11 19:13:00,
2013-04-11 14:18:00,42.4,35.4,-100.00,SW,225,7.0,25.0,76,0.00,,,0.36,meteohub,2013-04-11 19:18:00,
2013-04-11 14:23:00,42.1,35.4,-100.00,WSW,244,13.0,25.0,77,0.00,,,0.36,meteohub,2013-04-11 19:23:00,
2013-04-11 14:28:00,42.3,36.0,-100.00,WSW,250,12.0,22.0,78,0.00,,,0.36,meteohub,2013-04-11 19:28:00,
2013-04-11 14:33:00,42.3,35.2,-100.00,WSW,249,9.0,22.0,76,0.00,,,0.36,meteohub,2013-04-11 19:33:00,
2013-04-11 14:39:00,42.4,35.4,-100.00,SW,221,11.0,22.0,76,0.00,,,0.36,meteohub,2013-04-11 19:39:00,
2013-04-11 14:44:00,42.4,35.1,-100.00,SW,232,13.0,19.0,75,0.00,,,0.36,meteohub,2013-04-11 19:44:00,
2013-04-11 14:49:00,42.1,34.3,-100.00,SW,234,15.0,19.0,74,0.00,,,0.36,meteohub,2013-04-11 19:49:00,
2013-04-11 14:54:00,41.5,34.2,-100.00,West,264,14.0,25.0,75,0.00,,,0.36,meteohub,2013-04-11 19:54:00,
2013-04-11 14:59:00,40.8,33.8,-100.00,NW,311,13.0,25.0,76,0.00,,,0.36,meteohub,2013-04-11 19:59:00,
2013-04-11 15:04:00,40.8,33.8,-100.00,SW,233,18.0,25.0,76,0.00,,,0.36,meteohub,2013-04-11 20:04:00,
2013-04-11 15:09:00,41.0,33.6,-100.00,West,268,0.0,24.0,75,0.00,,,0.36,meteohub,2013-04-11 20:09:00,
2013-04-11 15:14:00,41.2,33.4,-100.00,WSW,253,10.0,22.0,74,0.00,,,0.36,meteohub,2013-04-11 20:14:00,
2013-04-11 15:19:00,41.5,33.3,-100.00,WSW,238,22.0,22.0,72,0.00,,,0.36,meteohub,2013-04-11 20:19:00,
2013-04-11 15:24:00,41.9,33.6,-100.00,SSW,211,1.0,22.0,72,0.00,,,0.36,meteohub,2013-04-11 20:24:00,
2013-04-11 15:29:00,42.4,34.3,-100.00,SW,218,6.0,29.0,73,0.00,,,0.36,meteohub,2013-04-11 20:29:00,
2013-04-11 15:34:00,42.4,34.0,-100.00,SSW,213,6.0,29.0,72,0.00,,,0.36,meteohub,2013-04-11 20:34:00,
2013-04-11 15:39:00,41.9,33.8,-100.00,WSW,248,13.0,17.0,73,0.00,,,0.36,meteohub,2013-04-11 20:39:00,
2013-04-11 15:44:00,41.4,33.6,-100.00,South,187,7.0,23.0,74,0.00,,,0.36,meteohub,2013-04-11 20:44:00,
2013-04-11 15:49:00,41.0,33.4,-100.00,WSW,238,17.0,23.0,74,0.00,,,0.36,meteohub,2013-04-11 20:49:00,
2013-04-11 15:54:00,41.2,33.4,-100.00,SSW,211,7.0,23.0,74,0.00,,,0.36,meteohub,2013-04-11 20:54:00,
2013-04-11 15:59:00,41.7,34.3,-100.00,SW,218,1.0,21.0,75,0.00,,,0.36,meteohub,2013-04-11 20:59:00,
2013-04-11 16:04:00,42.3,34.2,-100.00,WSW,258,15.0,20.0,73,0.00,,,0.36,meteohub,2013-04-11 21:04:00,
2013-04-11 16:09:00,42.1,33.8,-100.00,WNW,292,9.0,22.0,72,0.00,,,0.36,meteohub,2013-04-11 21:09:00,
2013-04-11 16:14:00,41.5,33.3,-100.00,WSW,255,9.0,22.0,72,0.00,,,0.36,meteohub,2013-04-11 21:14:00,
2013-04-11 16:19:00,41.5,33.3,-100.00,West,281,2.0,22.0,72,0.00,,,0.36,meteohub,2013-04-11 21:19:00,
2013-04-11 16:24:00,41.4,33.4,-100.00,WSW,241,10.0,20.0,73,0.00,,,0.36,meteohub,2013-04-11 21:24:00,
2013-04-11 16:29:00,40.8,32.9,-100.00,SW,236,23.0,23.0,73,0.00,,,0.36,meteohub,2013-04-11 21:29:00,
2013-04-11 16:34:00,40.3,32.7,-100.00,WSW,242,13.0,22.0,74,0.00,,,0.36,meteohub,2013-04-11 21:34:00,
2013-04-11 16:39:00,40.1,32.9,-100.00,SW,234,2.0,25.0,75,0.00,,,0.36,meteohub,2013-04-11 21:39:00,
2013-04-11 16:44:00,39.9,32.9,-100.00,SW,223,3.0,25.0,76,0.00,,,0.36,meteohub,2013-04-11 21:44:00,
2013-04-11 16:49:00,39.9,33.3,-100.00,WSW,250,6.0,24.0,77,0.00,,,0.36,meteohub,2013-04-11 21:49:00,
2013-04-11 16:54:00,39.7,32.5,-100.00,SW,229,2.0,23.0,75,0.00,,,0.36,meteohub,2013-04-11 21:54:00,
2013-04-11 16:59:00,39.7,32.5,-100.00,SW,227,3.0,21.0,75,0.00,,,0.36,meteohub,2013-04-11 21:59:00,
2013-04-11 17:04:00,39.9,32.7,-100.00,SW,219,6.0,21.0,75,0.00,,,0.36,meteohub,2013-04-11 22:04:00,
2013-04-11 17:09:00,40.3,33.1,-100.00,West,273,0.0,21.0,75,0.00,,,0.36,meteohub,2013-04-11 22:09:00,
2013-04-11 17:14:00,40.5,32.9,-100.00,SW,223,5.0,20.0,74,0.00,,,0.36,meteohub,2013-04-11 22:14:00,
2013-04-11 17:19:00,40.5,33.1,-100.00,WSW,246,15.0,17.0,75,0.00,,,0.36,meteohub,2013-04-11 22:19:00,
2013-04-11 17:24:00,39.9,32.7,-100.00,SW,233,13.0,17.0,75,0.00,,,0.36,meteohub,2013-04-11 22:24:00,
2013-04-11 17:29:00,39.7,32.7,-100.00,WSW,256,13.0,20.0,76,0.00,,,0.36,meteohub,2013-04-11 22:29:00,
2013-04-11 17:35:00,39.6,32.5,-100.00,WSW,244,7.0,20.0,76,0.00,,,0.36,meteohub,2013-04-11 22:35:00,
2013-04-11 17:40:00,39.6,32.9,-100.00,WSW,238,14.0,21.0,77,0.00,,,0.36,meteohub,2013-04-11 22:40:00,
2013-04-11 17:45:00,39.6,32.9,-100.00,SW,219,8.0,21.0,77,0.00,,,0.36,meteohub,2013-04-11 22:45:00,
2013-04-11 17:50:00,39.4,32.7,-100.00,SW,236,7.0,21.0,77,0.00,,,0.36,meteohub,2013-04-11 22:50:00,
2013-04-11 17:55:00,39.4,32.7,-100.00,SW,227,12.0,19.0,77,0.00,,,0.36,meteohub,2013-04-11 22:55:00,
2013-04-11 18:00:00,39.4,32.7,-100.00,WNW,286,12.0,21.0,77,0.00,,,0.36,meteohub,2013-04-11 23:00:00,
2013-04-11 18:05:00,39.2,32.5,-100.00,SSW,210,5.0,21.0,77,0.00,,,0.36,meteohub,2013-04-11 23:05:00,
2013-04-11 18:10:00,39.0,32.7,-100.00,West,281,5.0,21.0,78,0.00,,,0.36,meteohub,2013-04-11 23:10:00,
2013-04-11 18:15:00,39.0,32.7,-100.00,SSW,201,6.0,21.0,78,0.00,,,0.36,meteohub,2013-04-11 23:15:00,
2013-04-11 18:20:00,39.0,32.7,-100.00,West,259,11.0,21.0,78,0.00,,,0.36,meteohub,2013-04-11 23:20:00,
2013-04-11 18:25:00,39.2,32.9,-100.00,WSW,252,5.0,17.0,78,0.00,,,0.36,meteohub,2013-04-11 23:25:00,
2013-04-11 18:30:00,39.2,32.5,-100.00,WSW,242,10.0,17.0,77,0.00,,,0.36,meteohub,2013-04-11 23:30:00,
2013-04-11 18:35:00,39.2,32.5,-100.00,WSW,247,3.0,17.0,77,0.00,,,0.36,meteohub,2013-04-11 23:35:00,
2013-04-11 18:40:00,39.2,32.4,-100.00,West,259,10.0,17.0,76,0.00,,,0.36,meteohub,2013-04-11 23:40:00,
2013-04-11 18:45:00,39.2,32.4,-100.00,SW,228,0.0,19.0,76,0.00,,,0.36,meteohub,2013-04-11 23:45:00,
2013-04-11 18:50:00,39.0,32.2,-100.00,NW,309,1.0,19.0,76,0.00,,,0.36,meteohub,2013-04-11 23:50:00,
2013-04-11 18:59:00,39.0,32.2,-100.00,WSW,254,5.0,15.0,76,0.00,,,0.36,meteohub,2013-04-11 23:59:00,
2013-04-11 19:04:00,39.0,32.2,-100.00,SW,215,1.0,17.0,76,0.00,,,0.36,meteohub,2013-04-12 00:04:00,
2013-04-11 19:09:00,39.0,32.2,-100.00,WSW,244,10.0,17.0,76,0.00,,,0.00,meteohub,2013-04-12 00:09:00,
2013-04-11 19:14:00,38.8,32.0,-100.00,West,259,0.0,17.0,76,0.00,,,0.00,meteohub,2013-04-12 00:14:00,
2013-04-11 19:19:00,38.8,31.6,-100.00,West,271,16.0,16.0,75,0.00,,,0.00,meteohub,2013-04-12 00:19:00,
2013-04-11 19:24:00,38.8,31.6,-100.00,West,281,17.0,17.0,75,0.00,,,0.00,meteohub,2013-04-12 00:24:00,
2013-04-11 19:29:00,38.8,31.6,-100.00,SW,217,2.0,19.0,75,0.00,,,0.00,meteohub,2013-04-12 00:29:00,
2013-04-11 19:34:00,38.8,31.6,-100.00,West,265,1.0,19.0,75,0.00,,,0.00,meteohub,2013-04-12 00:34:00,
2013-04-11 19:39:00,38.7,31.5,-100.00,SW,222,2.0,19.0,75,0.00,,,0.00,meteohub,2013-04-12 00:39:00,
2013-04-11 19:44:00,38.7,31.8,-100.00,West,275,7.0,15.0,76,0.00,,,0.00,meteohub,2013-04-12 00:44:00,
2013-04-11 19:49:00,38.7,31.8,-100.00,SW,236,10.0,15.0,76,0.00,,,0.00,meteohub,2013-04-12 00:49:00,
2013-04-11 19:54:00,38.7,31.5,-100.00,WNW,292,1.0,15.0,75,0.00,,,0.00,meteohub,2013-04-12 00:54:00,
2013-04-11 19:59:00,38.7,31.5,-100.00,WSW,254,7.0,16.0,75,0.00,,,0.00,meteohub,2013-04-12 00:59:00,
2013-04-11 20:04:00,38.7,31.5,-100.00,WSW,248,3.0,16.0,75,0.00,,,0.00,meteohub,2013-04-12 01:04:00,
2013-04-11 20:09:00,38.7,31.5,-100.00,West,267,1.0,16.0,75,0.00,,,0.00,meteohub,2013-04-12 01:09:00,
2013-04-11 20:14:00,38.5,31.3,-100.00,WSW,245,3.0,14.0,75,0.00,,,0.00,meteohub,2013-04-12 01:14:00,
2013-04-11 20:19:00,38.5,31.3,-100.00,SW,236,10.0,14.0,75,0.00,,,0.00,meteohub,2013-04-12 01:19:00,
2013-04-11 20:24:00,38.5,30.9,-100.00,SSW,207,5.0,14.0,74,0.00,,,0.00,meteohub,2013-04-12 01:24:00,
2013-04-11 20:29:00,38.5,30.9,-100.00,WSW,244,13.0,13.0,74,0.00,,,0.00,meteohub,2013-04-12 01:29:00,
2013-04-11 20:34:00,38.5,30.6,-100.00,West,267,3.0,12.0,73,0.00,,,0.00,meteohub,2013-04-12 01:34:00,
2013-04-11 20:39:00,38.5,30.9,-100.00,WSW,249,7.0,17.0,74,0.00,,,0.00,meteohub,2013-04-12 01:39:00,
2013-04-11 20:44:00,38.5,30.9,-100.00,SW,223,10.0,17.0,74,0.00,,,0.00,meteohub,2013-04-12 01:44:00,
2013-04-11 20:49:00,38.5,30.9,-100.00,SW,234,11.0,17.0,74,0.00,,,0.00,meteohub,2013-04-12 01:49:00,
2013-04-11 20:54:00,38.5,30.9,-100.00,SW,234,7.0,14.0,74,0.00,,,0.00,meteohub,2013-04-12 01:54:00,
2013-04-11 20:59:00,38.5,30.9,-100.00,SW,232,2.0,14.0,74,0.00,,,0.00,meteohub,2013-04-12 01:59:00,
2013-04-11 21:04:00,38.5,30.9,-100.00,West,269,7.0,14.0,74,0.00,,,0.00,meteohub,2013-04-12 02:04:00,
2013-04-11 21:09:00,38.5,30.9,-100.00,SW,220,7.0,13.0,74,0.00,,,0.00,meteohub,2013-04-12 02:09:00,
2013-04-11 21:14:00,38.5,30.9,-100.00,SW,218,7.0,13.0,74,0.00,,,0.00,meteohub,2013-04-12 02:14:00,
2013-04-11 21:19:00,38.5,30.9,-100.00,WSW,249,9.0,15.0,74,0.00,,,0.00,meteohub,2013-04-12 02:19:00,
2013-04-11 21:24:00,38.5,30.6,-100.00,SW,215,5.0,18.0,73,0.00,,,0.00,meteohub,2013-04-12 02:24:00,
2013-04-11 21:29:00,38.5,30.9,-100.00,SW,217,5.0,18.0,74,0.00,,,0.00,meteohub,2013-04-12 02:29:00,
2013-04-11 21:34:00,38.5,30.9,-100.00,WSW,249,10.0,16.0,74,0.00,,,0.00,meteohub,2013-04-12 02:34:00,
2013-04-11 21:39:00,38.5,30.9,-100.00,SW,226,6.0,17.0,74,0.00,,,0.00,meteohub,2013-04-12 02:39:00,
2013-04-11 21:44:00,38.5,30.9,-100.00,SW,215,2.0,17.0,74,0.00,,,0.00,meteohub,2013-04-12 02:44:00,
2013-04-11 21:49:00,38.5,30.6,-100.00,West,269,0.0,17.0,73,0.00,,,0.00,meteohub,2013-04-12 02:49:00,
2013-04-11 21:54:00,38.5,30.9,-100.00,SW,236,4.0,13.0,74,0.00,,,0.00,meteohub,2013-04-12 02:54:00,
2013-04-11 21:59:00,38.5,30.9,-100.00,WSW,242,4.0,13.0,74,0.00,,,0.00,meteohub,2013-04-12 02:59:00,
2013-04-11 22:04:00,38.5,30.9,-100.00,SW,229,4.0,13.0,74,0.00,,,0.00,meteohub,2013-04-12 03:04:00,
2013-04-11 22:09:00,38.5,31.3,-100.00,SW,230,3.0,11.0,75,0.00,,,0.00,meteohub,2013-04-12 03:09:00,
2013-04-11 22:14:00,38.3,31.1,-100.00,SW,222,6.0,11.0,75,0.00,,,0.00,meteohub,2013-04-12 03:14:00,
2013-04-11 22:19:00,38.3,31.1,-100.00,SSW,211,3.0,11.0,75,0.00,,,0.00,meteohub,2013-04-12 03:19:00,
2013-04-11 22:25:00,38.3,31.1,-100.00,SW,226,4.0,10.0,75,0.00,,,0.00,meteohub,2013-04-12 03:25:00,
2013-04-11 22:30:00,38.3,31.1,-100.00,SW,214,3.0,10.0,75,0.00,,,0.00,meteohub,2013-04-12 03:30:00,
2013-04-11 22:35:00,38.3,31.1,-100.00,SW,236,4.0,9.0,75,0.00,,,0.00,meteohub,2013-04-12 03:35:00,
2013-04-11 22:40:00,38.3,31.1,-100.00,SW,223,2.0,10.0,75,0.00,,,0.00,meteohub,2013-04-12 03:40:00,
2013-04-11 22:45:00,38.3,31.1,-100.00,SSW,207,2.0,13.0,75,0.00,,,0.00,meteohub,2013-04-12 03:45:00,
2013-04-11 22:50:00,38.5,30.9,-100.00,SW,234,4.0,13.0,74,0.00,,,0.00,meteohub,2013-04-12 03:50:00,
2013-04-11 22:55:00,38.5,30.9,-100.00,South,191,4.0,12.0,74,0.00,,,0.00,meteohub,2013-04-12 03:55:00,
2013-04-11 23:00:00,38.5,30.9,-100.00,SW,234,7.0,12.0,74,0.00,,,0.00,meteohub,2013-04-12 04:00:00,
2013-04-11 23:02:00,38.5,30.9,-100.00,SW,232,1.0,12.0,74,0.00,,,0.00,meteohub,2013-04-12 04:02:00,
2013-04-11 23:06:00,38.5,30.9,-100.00,SW,235,7.0,12.0,74,0.00,,,0.00,meteohub,2013-04-12 04:06:00,
2013-04-11 23:11:00,38.5,30.9,-100.00,SW,224,5.0,12.0,74,0.00,,,0.00,meteohub,2013-04-12 04:11:00,
2013-04-11 23:16:00,38.5,30.9,-100.00,SW,236,5.0,12.0,74,0.00,,,0.00,meteohub,2013-04-12 04:16:00,
2013-04-11 23:21:00,38.5,30.9,-100.00,WSW,237,13.0,13.0,74,0.00,,,0.00,meteohub,2013-04-12 04:21:00,
2013-04-11 23:26:00,38.5,30.9,-100.00,SSW,210,1.0,13.0,74,0.00,,,0.00,meteohub,2013-04-12 04:26:00,
2013-04-11 23:31:00,38.5,30.9,-100.00,SW,232,1.0,13.0,74,0.00,,,0.00,meteohub,2013-04-12 04:31:00,
2013-04-11 23:36:00,38.5,30.9,-100.00,SW,234,4.0,13.0,74,0.00,,,0.00,meteohub,2013-04-12 04:36:00,
2013-04-11 23:41:00,38.5,30.9,-100.00,SW,236,7.0,14.0,74,0.00,,,0.00,meteohub,2013-04-12 04:41:00,
2013-04-11 23:46:00,38.5,30.9,-100.00,SW,233,1.0,15.0,74,0.00,,,0.00,meteohub,2013-04-12 04:46:00,
2013-04-11 23:52:00,38.7,31.1,-100.00,SW,229,5.0,15.0,74,0.00,,,0.00,meteohub,2013-04-12 04:52:00,
2013-04-11 23:57:00,38.7,31.1,-100.00,SW,235,7.0,15.0,74,0.00,,,0.00,meteohub,2013-04-12 04:57:00,